Time;durP1;ratioP1;P1;durP2;ratioP2;P2;SDS_P1;SDS_P2;PMS_P1;PMS_P2;Temp;Humidity;BMP_temperature;BMP_pressure;BME280_temperature;BME280_humidity;BME280_pressure;Samples;Min_cycle;Max_cycle;Signal;HPM_P1;HPM_P2
2022/01/05 00:00:20;;;;;;;1.05;0.28;;;5.90;99.90;;;;;;5044689;28;20428;-73
2022/01/05 00:02:52;;;;;;;0.35;0.13;;;5.90;99.90;;;;;;5045683;28;20037;-73
2022/01/05 00:05:19;;;;;;;1.25;0.10;;;5.90;99.90;;;;;;5031691;28;20044;-73
2022/01/05 00:07:44;;;;;;;0.20;0.10;;;5.90;99.90;;;;;;5040896;28;20033;-73
2022/01/05 00:10:10;;;;;;;0.32;0.20;;;5.90;99.90;;;;;;5028003;28;20702;-73
2022/01/05 00:12:36;;;;;;;0.63;0.20;;;5.90;99.90;;;;;;5045399;28;20021;-73
2022/01/05 00:15:02;;;;;;;0.10;0.10;;;5.90;99.90;;;;;;5042969;28;20429;-73
2022/01/05 00:17:31;;;;;;;0.35;0.15;;;5.90;99.90;;;;;;5049760;28;20124;-72
2022/01/05 00:19:57;;;;;;;0.17;0.10;;;5.90;99.90;;;;;;5046496;28;20024;-73
2022/01/05 00:22:23;;;;;;;0.43;0.20;;;5.90;99.90;;;;;;5050438;28;20511;-73
2022/01/05 00:24:49;;;;;;;0.22;0.10;;;6.00;99.90;;;;;;5030240;28;20414;-73
2022/01/05 00:27:15;;;;;;;1.05;0.20;;;6.00;99.90;;;;;;5030786;28;20109;-73
2022/01/05 00:29:41;;;;;;;0.77;0.30;;;6.00;99.90;;;;;;5048733;28;20445;-73
2022/01/05 00:32:07;;;;;;;0.28;0.20;;;6.00;99.90;;;;;;5050175;28;20083;-72
2022/01/05 00:34:33;;;;;;;0.52;0.20;;;6.00;99.90;;;;;;5049602;28;20440;-73
2022/01/05 00:36:59;;;;;;;0.20;0.10;;;6.00;99.90;;;;;;5047987;28;20824;-72
2022/01/05 00:39:25;;;;;;;0.52;0.10;;;6.10;99.90;;;;;;5047744;28;20028;-72
2022/01/05 00:41:54;;;;;;;1.15;0.20;;;6.10;99.90;;;;;;5032585;28;20025;-73
2022/01/05 00:44:19;;;;;;;0.40;0.10;;;6.10;99.90;;;;;;5044341;28;20029;-72
2022/01/05 00:46:46;;;;;;;0.70;0.20;;;6.10;99.90;;;;;;5045646;28;20025;-73
2022/01/05 00:49:12;;;;;;;0.10;0.10;;;6.10;99.90;;;;;;5048733;28;20083;-72
2022/01/05 00:51:38;;;;;;;0.32;0.10;;;6.10;99.90;;;;;;5044948;28;20082;-73
2022/01/05 00:54:04;;;;;;;1.00;0.55;;;6.10;99.90;;;;;;5043981;28;20025;-72
2022/01/05 00:56:30;;;;;;;0.75;0.10;;;6.10;99.90;;;;;;5027297;28;20524;-73
2022/01/05 00:58:56;;;;;;;0.10;0.10;;;6.10;99.90;;;;;;5032139;28;20022;-73
2022/01/05 01:01:22;;;;;;;0.50;0.20;;;6.10;99.90;;;;;;5032060;28;20082;-72
2022/01/05 01:03:47;;;;;;;0.10;0.10;;;6.10;99.90;;;;;;5049308;28;21119;-72
2022/01/05 01:06:13;;;;;;;0.45;0.10;;;6.10;99.90;;;;;;5029181;28;20037;-72
2022/01/05 01:08:39;;;;;;;1.02;0.17;;;6.10;99.90;;;;;;5041151;28;20132;-72
2022/01/05 01:11:05;;;;;;;0.08;0.03;;;6.10;99.90;;;;;;5028379;28;20139;-72
2022/01/05 01:13:31;;;;;;;0.10;0.10;;;6.20;99.90;;;;;;5046328;28;20109;-72
2022/01/05 01:15:57;;;;;;;0.30;0.22;;;6.20;99.90;;;;;;5046150;28;20029;-72
2022/01/05 01:18:22;;;;;;;2.97;0.25;;;6.20;99.90;;;;;;5046265;28;20025;-73
2022/01/05 01:20:49;;;;;;;0.40;0.10;;;6.20;99.90;;;;;;5048105;28;20024;-72
2022/01/05 01:23:18;;;;;;;0.63;0.20;;;6.20;99.90;;;;;;5053833;28;20108;-73
2022/01/05 01:25:44;;;;;;;0.98;0.20;;;6.20;99.90;;;;;;5024300;28;20048;-73
2022/01/05 01:28:13;;;;;;;0.17;0.10;;;6.30;99.90;;;;;;5058661;28;20061;-72
2022/01/05 01:30:39;;;;;;;1.77;0.15;;;6.30;99.90;;;;;;5051371;28;20376;-72
2022/01/05 01:33:05;;;;;;;0.22;0.10;;;6.30;99.90;;;;;;5050008;28;20024;-73
2022/01/05 01:35:31;;;;;;;0.73;0.30;;;6.30;99.90;;;;;;5039704;28;20029;-73
2022/01/05 01:37:57;;;;;;;0.32;0.10;;;6.30;99.90;;;;;;5049800;28;20500;-73
2022/01/05 01:40:23;;;;;;;0.10;0.10;;;6.30;99.90;;;;;;5048920;28;20039;-72
2022/01/05 01:42:49;;;;;;;1.20;0.20;;;6.30;99.90;;;;;;5048272;28;20063;-72
2022/01/05 01:45:20;;;;;;;0.30;0.10;;;6.30;99.90;;;;;;5033955;28;20056;-71
2022/01/05 01:47:46;;;;;;;0.85;0.35;;;6.30;99.90;;;;;;5054051;28;20033;-72
2022/01/05 01:50:15;;;;;;;1.27;0.20;;;6.30;99.90;;;;;;5051791;28;20099;-72
2022/01/05 01:52:41;;;;;;;0.47;0.17;;;6.40;99.90;;;;;;5037167;28;20092;-72
2022/01/05 01:55:08;;;;;;;0.40;0.20;;;6.40;99.90;;;;;;5031303;28;20049;-72
2022/01/05 01:57:36;;;;;;;1.17;0.50;;;6.40;99.90;;;;;;5048572;28;20093;-72
2022/01/05 02:00:04;;;;;;;0.30;0.20;;;6.40;99.90;;;;;;5036803;28;20037;-72
2022/01/05 02:02:30;;;;;;;0.35;0.20;;;6.40;99.90;;;;;;5032086;28;20029;-74
2022/01/05 02:04:56;;;;;;;0.25;0.20;;;6.40;99.90;;;;;;5052120;28;20044;-73
2022/01/05 02:07:22;;;;;;;0.73;0.10;;;6.40;99.90;;;;;;5033913;28;20110;-73
2022/01/05 02:09:48;;;;;;;0.28;0.20;;;6.40;99.90;;;;;;5049915;28;20090;-72
2022/01/05 02:12:16;;;;;;;0.68;0.20;;;6.40;99.90;;;;;;5029207;28;20537;-73
2022/01/05 02:14:42;;;;;;;1.17;0.30;;;6.40;99.90;;;;;;5046468;28;20499;-71
2022/01/05 02:17:24;;;;;;;0.75;0.20;;;6.50;99.90;;;;;;5031301;28;20025;-71
2022/01/05 02:19:56;;;;;;;2.95;0.20;;;6.50;99.90;;;;;;5047151;28;20154;-72
2022/01/05 02:22:21;;;;;;;0.25;0.15;;;6.50;99.90;;;;;;5048327;28;20094;-73
2022/01/05 02:24:48;;;;;;;1.13;0.10;;;6.50;99.90;;;;;;5035620;28;20032;-73
2022/01/05 02:27:17;;;;;;;0.10;0.10;;;6.50;99.90;;;;;;5048934;28;20505;-73
2022/01/05 02:29:44;;;;;;;1.38;0.25;;;6.50;99.90;;;;;;5032488;28;20058;-72
2022/01/05 02:32:10;;;;;;;1.35;0.10;;;6.50;99.90;;;;;;5025462;28;20119;-72
2022/01/05 02:34:35;;;;;;;1.48;0.10;;;6.50;99.90;;;;;;5040460;28;20487;-72
2022/01/05 02:37:01;;;;;;;0.60;0.20;;;6.50;99.90;;;;;;5036102;28;20033;-72
2022/01/05 02:39:27;;;;;;;0.20;0.10;;;6.50;99.90;;;;;;5044089;28;20105;-72
2022/01/05 02:41:52;;;;;;;0.20;0.20;;;6.50;99.90;;;;;;5047474;28;20108;-73
2022/01/05 02:44:19;;;;;;;0.82;0.03;;;6.50;99.90;;;;;;5036843;28;20040;-73
2022/01/05 02:46:45;;;;;;;2.03;0.20;;;6.50;99.90;;;;;;5053446;28;20060;-72
2022/01/05 02:49:10;;;;;;;0.40;0.20;;;6.50;99.90;;;;;;5056088;28;20473;-72
2022/01/05 02:51:36;;;;;;;0.35;0.10;;;6.50;99.90;;;;;;5049416;28;20041;-73
2022/01/05 02:54:02;;;;;;;0.15;0.10;;;6.50;99.90;;;;;;5059025;28;20021;-72
2022/01/05 02:56:27;;;;;;;0.20;0.10;;;6.50;99.90;;;;;;5054383;28;20037;-72
2022/01/05 02:58:53;;;;;;;1.30;0.50;;;6.50;99.90;;;;;;5037954;28;20029;-72
2022/01/05 03:01:19;;;;;;;3.75;2.05;;;6.50;99.90;;;;;;5035905;28;20059;-72
2022/01/05 03:03:45;;;;;;;1.50;0.40;;;6.50;99.90;;;;;;5039904;28;20458;-72
2022/01/05 03:06:10;;;;;;;0.20;0.15;;;6.50;99.90;;;;;;5051419;28;20091;-72
2022/01/05 03:08:36;;;;;;;0.65;0.32;;;6.50;99.90;;;;;;5057265;28;20033;-73
2022/01/05 03:11:02;;;;;;;0.10;0.10;;;6.50;99.90;;;;;;5036494;28;20021;-73
2022/01/05 03:13:28;;;;;;;0.75;0.17;;;6.50;99.90;;;;;;5055235;28;20028;-72
2022/01/05 03:15:55;;;;;;;0.08;0.08;;;6.50;99.90;;;;;;5051226;28;20094;-73
2022/01/05 03:18:21;;;;;;;0.10;0.10;;;6.50;99.90;;;;;;5048816;28;20025;-73
2022/01/05 03:20:47;;;;;;;0.10;0.00;;;6.50;99.90;;;;;;5037106;28;20397;-73
2022/01/05 03:23:13;;;;;;;0.40;0.20;;;6.40;99.90;;;;;;5035331;28;20039;-73
2022/01/05 03:25:40;;;;;;;0.00;0.00;;;6.50;99.90;;;;;;5052532;28;20029;-72
2022/01/05 03:28:06;;;;;;;0.43;0.10;;;6.50;99.90;;;;;;5052469;28;20036;-73
2022/01/05 03:30:33;;;;;;;0.20;0.17;;;6.40;99.90;;;;;;5048577;28;20025;-73
2022/01/05 03:35:30;;;;;;;0.10;0.10;;;6.40;99.90;;;;;;5049806;28;20031;-73
2022/01/05 03:37:57;;;;;;;0.30;0.10;;;6.40;99.90;;;;;;5046328;28;20017;-73
2022/01/05 03:40:23;;;;;;;0.10;0.10;;;6.40;99.90;;;;;;5054541;28;20502;-73
2022/01/05 03:42:49;;;;;;;0.17;0.10;;;6.40;99.90;;;;;;5054186;28;20021;-73
2022/01/05 03:45:14;;;;;;;0.20;0.10;;;6.30;99.90;;;;;;5048608;28;20075;-72
2022/01/05 03:47:40;;;;;;;1.13;0.10;;;6.30;99.90;;;;;;5053362;28;20033;-73
2022/01/05 03:50:06;;;;;;;0.40;0.10;;;6.30;99.90;;;;;;5048471;28;20510;-72
2022/01/05 03:52:33;;;;;;;0.30;0.00;;;6.20;99.90;;;;;;5049324;28;20478;-73
2022/01/05 03:54:59;;;;;;;0.00;0.00;;;6.20;99.90;;;;;;5062539;28;20017;-73
2022/01/05 03:57:25;;;;;;;0.35;0.20;;;6.20;99.90;;;;;;5052399;28;20032;-73
2022/01/05 03:59:52;;;;;;;0.47;0.10;;;6.20;99.90;;;;;;5034756;28;20111;-73
2022/01/05 04:02:19;;;;;;;0.17;0.00;;;6.10;99.90;;;;;;5032199;28;20028;-72
2022/01/05 04:04:46;;;;;;;0.13;0.10;;;6.00;99.90;;;;;;5035896;28;20021;-72
2022/01/05 04:07:12;;;;;;;0.28;0.10;;;6.10;99.90;;;;;;5057983;28;20062;-73
2022/01/05 04:09:37;;;;;;;0.03;0.00;;;6.00;99.90;;;;;;5038809;28;20133;-72
2022/01/05 04:12:03;;;;;;;0.22;0.10;;;5.90;99.90;;;;;;5053840;28;20024;-73
2022/01/05 04:14:29;;;;;;;0.15;0.10;;;5.90;99.90;;;;;;5036358;28;20158;-73
2022/01/05 04:16:55;;;;;;;0.13;0.00;;;5.90;99.90;;;;;;5054102;28;20025;-73
2022/01/05 04:19:20;;;;;;;0.10;0.10;;;5.80;99.90;;;;;;5065552;28;20060;-73
2022/01/05 04:21:46;;;;;;;0.45;0.10;;;5.80;99.90;;;;;;5054548;28;20055;-73
2022/01/05 04:24:12;;;;;;;0.10;0.10;;;5.80;99.90;;;;;;5052822;28;20489;-73
2022/01/05 04:26:37;;;;;;;0.30;0.10;;;5.80;99.90;;;;;;5053572;28;20017;-73
2022/01/05 04:29:03;;;;;;;0.20;0.10;;;5.80;99.90;;;;;;5046577;28;20087;-72
2022/01/05 04:31:29;;;;;;;0.30;0.10;;;5.80;99.90;;;;;;5053798;28;20100;-72
2022/01/05 04:33:55;;;;;;;0.13;0.10;;;5.70;99.90;;;;;;5053873;28;20063;-72
2022/01/05 04:36:20;;;;;;;0.47;0.03;;;5.70;99.90;;;;;;5055659;28;20021;-73
2022/01/05 04:38:46;;;;;;;1.67;0.80;;;5.60;99.90;;;;;;5052853;28;20087;-72
2022/01/05 04:41:12;;;;;;;0.30;0.10;;;5.70;99.90;;;;;;5043779;28;20326;-73
2022/01/05 04:43:37;;;;;;;0.75;0.10;;;5.60;99.90;;;;;;5038053;28;20158;-73
2022/01/05 04:46:03;;;;;;;0.15;0.10;;;5.60;99.90;;;;;;5048312;28;20092;-74
2022/01/05 04:48:29;;;;;;;0.95;0.13;;;5.70;99.90;;;;;;5052026;28;20058;-74
2022/01/05 04:50:55;;;;;;;0.10;0.10;;;5.70;99.90;;;;;;5034690;28;20021;-73
2022/01/05 04:53:21;;;;;;;0.45;0.05;;;5.70;99.90;;;;;;5029323;28;20603;-73
2022/01/05 04:55:46;;;;;;;0.08;0.00;;;5.70;99.90;;;;;;5046317;28;20396;-73
2022/01/05 04:58:12;;;;;;;0.10;0.10;;;5.70;99.90;;;;;;5033402;28;20058;-73
2022/01/05 05:00:38;;;;;;;0.00;0.00;;;5.70;99.90;;;;;;5047352;28;20163;-73
2022/01/05 05:03:03;;;;;;;0.10;0.00;;;5.60;99.90;;;;;;5036006;28;20028;-73
2022/01/05 05:05:29;;;;;;;0.10;0.10;;;5.60;99.90;;;;;;5029734;28;20068;-73
2022/01/05 05:07:55;;;;;;;0.00;0.00;;;5.70;99.90;;;;;;5053211;28;20082;-73
2022/01/05 05:10:21;;;;;;;0.00;0.00;;;5.70;99.90;;;;;;5052789;28;20083;-73
2022/01/05 05:12:46;;;;;;;0.13;0.13;;;5.60;99.90;;;;;;5052531;28;20021;-73
2022/01/05 05:15:12;;;;;;;0.20;0.10;;;5.60;99.90;;;;;;5030256;28;20621;-73
2022/01/05 05:17:38;;;;;;;0.10;0.10;;;5.60;99.90;;;;;;5051035;28;20059;-73
2022/01/05 05:20:10;;;;;;;0.08;0.08;;;5.60;99.90;;;;;;5036650;28;20028;-73
2022/01/05 05:22:36;;;;;;;0.28;0.10;;;5.60;99.90;;;;;;5039770;28;20032;-73
2022/01/05 05:25:03;;;;;;;0.75;0.10;;;5.50;99.90;;;;;;5053544;28;20551;-73
2022/01/05 05:27:32;;;;;;;0.30;0.20;;;5.50;99.90;;;;;;5032822;28;20037;-72
2022/01/05 05:29:58;;;;;;;0.10;0.10;;;5.50;99.90;;;;;;5050976;28;20025;-73
2022/01/05 05:32:24;;;;;;;0.20;0.10;;;5.40;99.90;;;;;;5028123;28;20071;-72
2022/01/05 05:34:50;;;;;;;1.65;0.10;;;5.50;99.90;;;;;;5047504;28;20051;-72
2022/01/05 05:37:16;;;;;;;0.28;0.17;;;5.40;99.90;;;;;;5037844;28;20029;-73
2022/01/05 05:39:42;;;;;;;0.40;0.10;;;5.30;99.90;;;;;;5039835;28;20406;-73
2022/01/05 05:42:08;;;;;;;0.28;0.10;;;5.30;99.90;;;;;;5046755;28;20047;-73
2022/01/05 05:44:40;;;;;;;0.17;0.13;;;5.20;99.90;;;;;;5028708;28;20124;-74
2022/01/05 05:47:06;;;;;;;2.05;0.10;;;5.20;99.90;;;;;;5050030;28;20025;-73
2022/01/05 05:49:32;;;;;;;1.95;0.20;;;5.20;99.90;;;;;;5037863;28;20033;-73
2022/01/05 05:51:58;;;;;;;0.17;0.10;;;5.10;99.90;;;;;;5048759;28;20470;-73
2022/01/05 05:54:24;;;;;;;0.68;0.20;;;5.00;99.90;;;;;;5042509;28;20131;-72
2022/01/05 05:56:50;;;;;;;0.75;0.15;;;5.00;99.90;;;;;;5040643;28;20044;-70
2022/01/05 05:59:15;;;;;;;0.70;0.40;;;5.00;99.90;;;;;;5037830;28;20029;-70
2022/01/05 06:01:41;;;;;;;0.35;0.20;;;5.50;99.90;;;;;;5042901;28;20037;-70
2022/01/05 06:04:07;;;;;;;1.23;0.20;;;5.60;99.90;;;;;;5046608;28;20520;-71
2022/01/05 06:06:33;;;;;;;0.10;0.10;;;5.50;99.90;;;;;;5026660;28;20021;-71
2022/01/05 06:08:58;;;;;;;0.20;0.10;;;5.50;99.90;;;;;;5054478;28;20039;-72
2022/01/05 06:11:24;;;;;;;0.10;0.10;;;5.40;99.90;;;;;;5037524;28;20033;-71
2022/01/05 06:13:52;;;;;;;0.35;0.15;;;5.30;99.90;;;;;;5050778;28;20029;-72
2022/01/05 06:16:18;;;;;;;0.57;0.40;;;5.30;99.90;;;;;;5050953;28;20040;-72
2022/01/05 06:18:44;;;;;;;0.73;0.30;;;5.10;99.90;;;;;;5040864;28;20486;-72
2022/01/05 06:21:09;;;;;;;0.52;0.38;;;5.10;99.90;;;;;;5053895;28;20033;-72
2022/01/05 06:23:35;;;;;;;0.45;0.38;;;4.90;99.90;;;;;;5055049;28;20099;-72
2022/01/05 06:26:01;;;;;;;0.70;0.38;;;4.90;99.90;;;;;;5054306;28;20574;-72
2022/01/05 06:28:26;;;;;;;2.88;0.60;;;4.80;99.90;;;;;;5052438;28;20021;-72
2022/01/05 06:30:52;;;;;;;2.55;1.20;;;4.80;99.90;;;;;;5049058;28;20025;-72
2022/01/05 06:33:18;;;;;;;2.08;0.80;;;4.80;99.90;;;;;;5040009;28;20381;-72
2022/01/05 06:35:44;;;;;;;2.15;0.50;;;4.70;99.90;;;;;;5052633;28;20031;-72
2022/01/05 06:38:09;;;;;;;1.63;0.60;;;4.70;99.90;;;;;;5052089;28;20052;-71
2022/01/05 06:40:36;;;;;;;3.03;0.90;;;4.60;99.90;;;;;;5055302;28;20034;-71
2022/01/05 06:43:02;;;;;;;5.65;3.17;;;4.60;99.90;;;;;;5048656;28;20025;-70
2022/01/05 06:45:28;;;;;;;3.30;2.08;;;4.60;99.90;;;;;;5028566;28;20033;-71
2022/01/05 06:47:54;;;;;;;2.22;1.33;;;4.60;99.90;;;;;;5025968;28;20111;-72
2022/01/05 06:50:19;;;;;;;2.72;1.02;;;4.50;99.90;;;;;;5044606;28;20154;-69
2022/01/05 06:52:45;;;;;;;1.40;0.90;;;4.50;99.90;;;;;;5046145;28;20071;-69
2022/01/05 06:55:11;;;;;;;1.30;0.88;;;4.40;99.90;;;;;;5020446;28;20116;-69
2022/01/05 06:57:41;;;;;;;2.28;1.50;;;4.40;99.90;;;;;;5045152;28;20108;-72
2022/01/05 07:00:09;;;;;;;2.70;1.20;;;4.40;99.90;;;;;;5032505;28;20116;-71
2022/01/05 07:02:35;;;;;;;0.90;0.70;;;4.40;99.90;;;;;;5045150;28;20082;-72
2022/01/05 07:05:01;;;;;;;1.50;1.10;;;4.30;99.90;;;;;;5047633;28;20396;-71
2022/01/05 07:07:28;;;;;;;1.75;0.95;;;4.30;99.90;;;;;;5049594;28;20525;-72
2022/01/05 07:09:54;;;;;;;2.17;1.02;;;4.20;99.90;;;;;;5051944;28;20017;-71
2022/01/05 07:12:19;;;;;;;1.75;0.90;;;4.30;99.90;;;;;;5036043;28;20383;-71
2022/01/05 07:14:45;;;;;;;1.90;0.60;;;4.30;99.90;;;;;;5038030;28;20025;-71
2022/01/05 07:17:11;;;;;;;0.82;0.60;;;4.30;99.90;;;;;;5033340;28;20109;-72
2022/01/05 07:19:37;;;;;;;1.10;0.60;;;4.20;99.90;;;;;;5053041;28;20029;-74
2022/01/05 07:22:02;;;;;;;1.98;0.93;;;4.30;99.90;;;;;;5047138;28;20056;-70
2022/01/05 07:24:28;;;;;;;1.58;1.20;;;4.30;99.90;;;;;;5052854;28;20394;-71
2022/01/05 07:26:57;;;;;;;1.40;0.90;;;4.30;99.90;;;;;;5056333;28;20025;-70
2022/01/05 07:29:23;;;;;;;2.65;1.40;;;4.20;99.90;;;;;;5036419;28;20043;-71
2022/01/05 07:31:49;;;;;;;1.25;0.80;;;4.20;99.90;;;;;;5049693;28;20021;-71
2022/01/05 07:34:15;;;;;;;2.22;1.10;;;4.20;99.90;;;;;;5049139;28;20021;-71
2022/01/05 07:36:41;;;;;;;1.27;0.80;;;4.20;99.90;;;;;;5048856;28;20520;-71
2022/01/05 07:39:07;;;;;;;1.15;0.77;;;4.10;99.90;;;;;;5058959;28;20024;-71
2022/01/05 07:41:37;;;;;;;1.50;0.90;;;4.20;99.90;;;;;;5049229;28;20480;-71
2022/01/05 07:44:04;;;;;;;2.00;0.90;;;4.20;99.90;;;;;;5053169;28;20025;-71
2022/01/05 07:46:33;;;;;;;1.98;0.95;;;4.10;99.90;;;;;;5057656;28;20509;-71
2022/01/05 07:49:01;;;;;;;2.60;1.48;;;4.10;99.90;;;;;;5047451;28;20402;-71
2022/01/05 07:51:27;;;;;;;3.33;1.17;;;4.10;99.90;;;;;;5049339;28;20032;-71
2022/01/05 07:53:53;;;;;;;2.38;0.85;;;4.10;99.90;;;;;;5052679;28;20029;-71
2022/01/05 07:56:19;;;;;;;1.65;0.90;;;4.00;99.90;;;;;;5036245;28;20492;-71
2022/01/05 07:58:47;;;;;;;3.35;1.05;;;3.90;99.90;;;;;;5054331;28;20087;-71
2022/01/05 08:01:16;;;;;;;1.02;0.70;;;4.00;99.90;;;;;;5051610;28;20023;-70
2022/01/05 08:03:42;;;;;;;0.95;0.68;;;4.00;99.90;;;;;;5031409;28;20125;-71
2022/01/05 08:06:08;;;;;;;1.23;0.60;;;3.80;99.90;;;;;;5037072;28;20067;-72
2022/01/05 08:08:33;;;;;;;0.90;0.63;;;3.80;99.90;;;;;;5054604;28;20029;-71
2022/01/05 08:10:59;;;;;;;4.88;1.20;;;3.70;99.90;;;;;;5052265;28;20021;-72
2022/01/05 08:13:25;;;;;;;4.38;1.05;;;3.70;99.90;;;;;;5043395;28;20052;-71
2022/01/05 08:15:51;;;;;;;5.35;1.27;;;3.60;99.90;;;;;;5036798;28;20466;-72
2022/01/05 08:18:18;;;;;;;2.95;0.98;;;3.50;99.90;;;;;;5054973;28;20025;-71
2022/01/05 08:20:45;;;;;;;7.60;1.38;;;3.50;99.90;;;;;;5038913;28;20025;-71
2022/01/05 08:23:18;;;;;;;2.78;1.10;;;3.40;99.90;;;;;;5058369;28;20047;-71
2022/01/05 08:25:44;;;;;;;2.42;1.17;;;3.40;99.90;;;;;;5055177;28;20636;-71
2022/01/05 08:28:11;;;;;;;5.35;1.63;;;3.40;99.90;;;;;;5034548;28;20040;-71
2022/01/05 08:30:37;;;;;;;3.60;1.40;;;3.40;99.90;;;;;;5056422;28;20035;-70
2022/01/05 08:33:03;;;;;;;3.47;1.15;;;3.40;99.90;;;;;;5053765;28;20021;-70
2022/01/05 08:35:30;;;;;;;3.58;0.85;;;3.40;99.90;;;;;;5051194;28;20029;-70
2022/01/05 08:37:56;;;;;;;6.65;2.13;;;3.30;99.90;;;;;;5052764;28;20049;-70
2022/01/05 08:40:24;;;;;;;4.95;1.40;;;3.30;99.90;;;;;;5054384;28;20112;-70
2022/01/05 08:42:50;;;;;;;2.42;1.15;;;3.30;99.90;;;;;;5035383;28;20065;-70
2022/01/05 08:45:17;;;;;;;5.82;1.40;;;3.30;99.90;;;;;;5035123;28;20119;-71
2022/01/05 08:47:47;;;;;;;4.63;1.45;;;3.40;99.90;;;;;;5053336;28;20113;-70
2022/01/05 08:50:14;;;;;;;1.67;0.88;;;3.30;99.90;;;;;;5054947;28;20021;-70
2022/01/05 08:52:40;;;;;;;2.92;1.20;;;3.30;99.90;;;;;;5050688;28;20033;-70
2022/01/05 08:55:06;;;;;;;3.05;0.88;;;3.30;99.90;;;;;;5033759;28;20031;-70
2022/01/05 08:57:33;;;;;;;5.43;1.60;;;3.30;99.90;;;;;;5054898;28;20461;-70
2022/01/05 08:59:59;;;;;;;6.22;1.27;;;3.30;99.90;;;;;;5053799;28;20076;-70
2022/01/05 09:02:24;;;;;;;7.03;1.08;;;3.30;99.90;;;;;;5056727;28;20049;-70
2022/01/05 09:04:52;;;;;;;16.45;1.77;;;3.10;99.90;;;;;;5053842;28;20025;-70
2022/01/05 09:07:20;;;;;;;4.97;1.17;;;3.10;99.90;;;;;;5053574;28;20465;-71
2022/01/05 09:09:46;;;;;;;3.47;0.70;;;3.00;99.90;;;;;;5050401;28;20055;-72
2022/01/05 09:12:12;;;;;;;4.55;1.08;;;2.90;99.90;;;;;;5056891;28;20465;-72
2022/01/05 09:14:39;;;;;;;2.88;1.30;;;2.80;99.90;;;;;;5052771;28;20087;-72
2022/01/05 09:17:05;;;;;;;10.63;2.03;;;2.80;99.90;;;;;;5041452;28;20116;-72
2022/01/05 09:19:31;;;;;;;4.65;1.08;;;2.70;99.90;;;;;;5052668;28;20113;-73
2022/01/05 09:21:56;;;;;;;4.03;1.15;;;2.80;99.90;;;;;;5055345;28;20543;-71
2022/01/05 09:24:25;;;;;;;6.63;1.67;;;2.80;99.90;;;;;;5038671;28;20386;-72
2022/01/05 09:26:51;;;;;;;7.03;1.63;;;2.90;99.90;;;;;;5042979;28;20029;-70
2022/01/05 09:29:18;;;;;;;5.03;1.65;;;3.00;99.90;;;;;;5052719;28;20021;-70
2022/01/05 09:31:44;;;;;;;5.25;1.80;;;3.00;99.90;;;;;;5051924;28;20017;-70
2022/01/05 09:34:11;;;;;;;3.72;1.10;;;3.10;99.90;;;;;;5050750;28;20051;-70
2022/01/05 09:36:42;;;;;;;4.38;1.50;;;3.20;99.90;;;;;;5037671;28;20031;-70
2022/01/05 09:42:06;;;;;;;4.55;1.30;;;3.20;99.90;;;;;;5047384;28;20040;-71
2022/01/05 09:44:41;;;;;;;4.13;1.00;;;3.10;99.90;;;;;;5052729;28;20024;-71
2022/01/05 09:47:20;;;;;;;14.52;2.60;;;2.90;99.90;;;;;;5048998;28;20025;-71
2022/01/05 09:50:10;;;;;;;10.35;1.45;;;2.90;99.90;;;;;;5049232;28;20477;-70
2022/01/05 09:52:38;;;;;;;5.97;1.40;;;2.90;99.90;;;;;;5033553;28;20029;-71
2022/01/05 09:55:06;;;;;;;9.27;2.28;;;2.90;99.90;;;;;;5049056;28;20017;-71
2022/01/05 09:57:32;;;;;;;6.85;1.63;;;2.90;99.90;;;;;;5036918;28;20024;-71
2022/01/05 09:59:59;;;;;;;9.15;2.00;;;2.90;99.90;;;;;;5033468;28;20021;-69
2022/01/05 10:02:26;;;;;;;8.18;2.10;;;2.90;99.90;;;;;;5052284;28;20017;-71
2022/01/05 10:04:52;;;;;;;6.28;1.30;;;2.90;99.90;;;;;;5053857;28;20023;-70
2022/01/05 10:07:18;;;;;;;8.00;1.73;;;2.90;99.90;;;;;;5042849;28;20028;-70
2022/01/05 10:09:46;;;;;;;13.90;1.60;;;3.00;99.90;;;;;;5041119;28;20029;-71
2022/01/05 10:12:13;;;;;;;8.55;1.73;;;3.10;99.90;;;;;;5033437;28;20028;-70
2022/01/05 10:14:48;;;;;;;6.25;1.10;;;3.20;99.90;;;;;;5033934;28;20029;-71
2022/01/05 10:17:21;;;;;;;13.98;1.48;;;3.20;99.90;;;;;;5050704;28;20595;-71
2022/01/05 10:19:58;;;;;;;3.78;1.20;;;3.30;99.90;;;;;;5051474;28;20389;-71
2022/01/05 10:22:38;;;;;;;17.40;2.90;;;3.40;99.90;;;;;;5054408;28;20021;-71
2022/01/05 10:25:14;;;;;;;5.68;1.27;;;3.50;99.90;;;;;;5048733;28;20445;-71
2022/01/05 10:27:40;;;;;;;5.85;1.50;;;3.40;99.90;;;;;;5028670;28;20428;-69
2022/01/05 10:30:12;;;;;;;5.30;1.30;;;3.30;99.90;;;;;;5051266;28;20017;-71
2022/01/05 10:32:38;;;;;;;8.43;2.30;;;3.10;99.90;;;;;;5048861;28;20482;-69
2022/01/05 10:35:09;;;;;;;14.07;1.95;;;3.10;99.90;;;;;;5049174;28;20017;-70
2022/01/05 10:37:37;;;;;;;5.72;2.05;;;3.00;99.90;;;;;;5049364;28;20029;-71
2022/01/05 10:40:14;;;;;;;6.65;2.30;;;3.00;99.90;;;;;;5050860;28;20466;-71
2022/01/05 10:42:41;;;;;;;7.15;2.67;;;2.90;99.90;;;;;;5049456;28;20053;-72
2022/01/05 10:45:11;;;;;;;9.13;2.88;;;2.80;99.90;;;;;;5028175;28;20021;-72
2022/01/05 10:47:37;;;;;;;6.03;1.35;;;2.60;99.90;;;;;;5022671;28;20028;-73
2022/01/05 10:50:05;;;;;;;7.43;1.80;;;2.60;99.90;;;;;;5050394;28;20017;-73
2022/01/05 10:52:34;;;;;;;8.45;1.75;;;2.60;99.90;;;;;;5049971;28;20431;-71
2022/01/05 10:55:22;;;;;;;12.77;2.45;;;2.60;99.90;;;;;;5048257;28;20440;-72
2022/01/05 10:58:12;;;;;;;5.40;1.88;;;2.50;99.90;;;;;;5046607;28;20070;-70
2022/01/05 11:00:41;;;;;;;8.20;1.65;;;2.60;99.90;;;;;;5054116;28;20037;-73
2022/01/05 11:03:31;;;;;;;4.60;1.80;;;2.60;99.90;;;;;;5037170;28;20039;-70
2022/01/05 11:06:04;;;;;;;4.82;1.58;;;2.60;99.90;;;;;;5050109;28;20533;-71
2022/01/05 11:08:31;;;;;;;4.50;1.50;;;2.50;99.90;;;;;;5040574;28;20039;-69
2022/01/05 11:10:57;;;;;;;9.55;2.03;;;2.50;99.90;;;;;;5052434;28;20096;-70
2022/01/05 11:13:26;;;;;;;11.35;2.00;;;2.50;99.90;;;;;;5039531;28;20025;-71
2022/01/05 11:15:57;;;;;;;10.13;2.10;;;2.40;99.90;;;;;;5050070;28;20032;-70
2022/01/05 11:18:24;;;;;;;7.63;1.70;;;2.40;99.90;;;;;;5054763;28;20079;-72
2022/01/05 11:20:52;;;;;;;10.60;2.60;;;2.40;99.90;;;;;;5035302;28;20538;-71
2022/01/05 11:23:22;;;;;;;4.00;1.58;;;2.50;99.90;;;;;;5050358;28;20026;-71
2022/01/05 11:25:49;;;;;;;3.95;1.13;;;2.50;99.90;;;;;;5055022;28;20489;-70
2022/01/05 11:28:16;;;;;;;6.03;1.55;;;2.40;99.90;;;;;;5051328;28;20113;-71
2022/01/05 11:30:44;;;;;;;11.52;1.70;;;2.50;99.90;;;;;;5038130;28;20025;-71
2022/01/05 11:33:10;;;;;;;8.90;1.67;;;2.50;99.90;;;;;;5055208;28;20024;-72
2022/01/05 11:35:36;;;;;;;5.95;1.80;;;2.60;99.90;;;;;;5057072;28;20473;-71
2022/01/05 11:38:04;;;;;;;4.80;1.27;;;2.60;99.90;;;;;;5053928;28;20028;-70
2022/01/05 11:40:31;;;;;;;9.57;1.70;;;2.70;99.90;;;;;;5050021;28;20078;-72
2022/01/05 11:43:02;;;;;;;8.48;1.65;;;2.80;99.90;;;;;;5055397;28;20064;-71
2022/01/05 11:45:45;;;;;;;5.97;1.30;;;2.80;99.90;;;;;;5055026;28;20612;-71
2022/01/05 11:48:13;;;;;;;6.85;1.30;;;2.90;99.90;;;;;;5054861;28;20017;-72
2022/01/05 11:50:50;;;;;;;6.40;1.20;;;2.90;99.90;;;;;;5040331;28;20312;-71
2022/01/05 11:53:38;;;;;;;6.10;1.30;;;3.00;99.90;;;;;;5051693;28;20021;-71
2022/01/05 11:56:17;;;;;;;13.02;1.35;;;3.10;99.90;;;;;;5053402;28;20021;-72
2022/01/05 11:58:53;;;;;;;7.35;1.20;;;3.10;99.90;;;;;;5036774;28;20033;-71
2022/01/05 12:01:22;;;;;;;5.05;1.10;;;3.10;99.90;;;;;;5050444;28;20138;-71
2022/01/05 12:03:50;;;;;;;6.70;1.55;;;3.10;99.90;;;;;;5051709;28;20033;-70
2022/01/05 12:06:17;;;;;;;4.65;1.30;;;3.00;99.90;;;;;;5053237;28;20025;-71
2022/01/05 12:08:51;;;;;;;10.45;1.42;;;3.00;99.90;;;;;;5052714;28;20036;-71
2022/01/05 12:11:35;;;;;;;;;;;2.90;99.90;;;;;;5034647;28;20025;-70
2022/01/05 12:14:06;;;;;;;5.32;1.38;;;2.90;99.90;;;;;;5043376;28;19908;-69
2022/01/05 12:16:59;;;;;;;4.60;1.38;;;2.90;99.90;;;;;;5050628;28;20380;-71
2022/01/05 12:19:55;;;;;;;6.47;1.17;;;3.00;99.90;;;;;;5056620;28;20052;-70
2022/01/05 12:22:23;;;;;;;6.00;1.25;;;3.00;99.90;;;;;;5051015;28;20349;-70
2022/01/05 12:25:09;;;;;;;9.98;1.30;;;3.00;99.40;;;;;;5055781;28;20057;-71
2022/01/05 12:27:48;;;;;;;5.10;1.40;;;2.90;99.90;;;;;;5046650;28;20118;-71
2022/01/05 12:30:17;;;;;;;8.25;2.40;;;3.00;99.90;;;;;;5037730;28;20028;-71
2022/01/05 12:32:44;;;;;;;14.45;1.73;;;3.00;99.90;;;;;;5039276;28;20116;-71
2022/01/05 12:35:20;;;;;;;10.27;1.27;;;3.10;99.90;;;;;;5036146;28;20028;-71
2022/01/05 12:37:57;;;;;;;11.95;1.55;;;3.20;99.90;;;;;;5052188;28;20083;-71
2022/01/05 12:40:36;;;;;;;9.40;1.60;;;3.30;99.90;;;;;;5035204;28;20032;-71
2022/01/05 12:43:08;;;;;;;10.80;2.38;;;3.40;99.90;;;;;;5046205;28;20122;-70
2022/01/05 12:45:53;;;;;;;12.40;1.90;;;3.50;99.90;;;;;;5046957;28;20032;-70
2022/01/05 12:48:31;;;;;;;6.75;1.27;;;3.50;99.90;;;;;;5051543;28;20024;-71
2022/01/05 12:51:14;;;;;;;14.65;1.70;;;3.60;99.90;;;;;;5049484;28;20039;-70
2022/01/05 12:54:02;;;;;;;10.13;2.25;;;3.60;99.90;;;;;;5038155;28;20239;-70
2022/01/05 12:56:36;;;;;;;13.98;1.75;;;3.60;99.90;;;;;;5031622;28;20056;-70
2022/01/05 12:59:07;;;;;;;12.98;1.50;;;3.60;99.90;;;;;;5031342;28;20025;-70
2022/01/05 13:01:33;;;;;;;9.40;1.42;;;3.60;99.90;;;;;;5054132;28;20036;-71
2022/01/05 13:04:00;;;;;;;9.27;2.47;;;3.60;99.90;;;;;;5052238;28;20394;-71